Stations météo

réclame
Mon MeteoGroup
Utklippan, Suède (2632): Température de l'air & dewpoint: 13.07.2018 15:00:00 - 19.07.2018 15:00:00 (CEST)Utklippan, Suède (2632): Vitesse du vent & gusts: 13.07.2018 15:00:00 - 19.07.2018 15:00:00 (CEST)Utklippan, Suède (2632): Direction du vent: 13.07.2018 15:00:00 - 19.07.2018 15:00:00 (CEST)
Date & Time tt [°C] td [°C] ff [km/h] ff [knt] fx [km/h] fx [knt] dd
19.07.2018 15:00:00 22,9 19,1 20 11 26 14 WNW
19.07.2018 14:00:00 23,2 19,6 18 10 23 12 WNW
19.07.2018 13:00:00 22,6 17,9 16 9 24 13 WNW
19.07.2018 12:00:00 22,2 18,4 20 11 25 13 WNW
19.07.2018 11:00:00 21,9 18,9 20 11 25 13 WNW
19.07.2018 10:00:00 21,6 18,6 19 10 22 12 WNW
19.07.2018 09:00:00 20,6 18,0 19 10 22 12 WNW
19.07.2018 08:00:00 20,6 17,8 16 9 25 13 NW
19.07.2018 07:00:00 20,4 17,6 18 10 23 13 NW
19.07.2018 06:00:00 20,2 17,4 20 11 24 13 NW
19.07.2018 05:00:00 20,2 17,8 16 8 22 12 NW
19.07.2018 04:00:00 20,2 17,4 19 10 26 14 NNW
19.07.2018 03:00:00 20,4 17,6 21 12 26 14 NNW
19.07.2018 02:00:00 20,7 17,7 18 10 24 13 NNW
19.07.2018 01:00:00 20,6 18,0 19 10 24 13 NNW
19.07.2018 00:00:00 21,1 17,9 21 11 27 15 NNW
18.07.2018 23:00:00 21,3 18,7 20 11 26 14 NNW
18.07.2018 22:00:00 21,3 19,0 21 11 24 13 NNW
18.07.2018 21:00:00 21,4 19,1 18 10 22 12 NNW
18.07.2018 20:00:00 20,8 19,5 9 5 20 11 NW
18.07.2018 19:00:00 20,9 19,6 16 9 27 14 WNW
18.07.2018 18:00:00 21,0 19,5 15 8 31 17 WNW
18.07.2018 17:00:00 21,1 19,7 19 10 25 14 W
18.07.2018 16:00:00 21,5 20,3 16 8 20 11 WNW
18.07.2018 15:00:00 21,5 20,3 11 6 23 12 WNW
18.07.2018 14:00:00 20,9 19,6 20 11 27 15 NW
18.07.2018 13:00:00 20,4 19,6 24 13 29 16 NW
18.07.2018 12:00:00 19,5 19,0 23 12 26 14 NW
18.07.2018 11:00:00 19,3 18,8 13 7 33 18 WNW
18.07.2018 10:00:00 19,7 18,4 31 17 37 20 NW
18.07.2018 09:00:00 19,9 19,4 22 12 25 14 NW
18.07.2018 08:00:00 19,5 19,0 20 11 23 13 NW
18.07.2018 07:00:00 19,4 18,6 16 8 18 10 NNW
18.07.2018 06:00:00 19,8 19,0 10 5 11 6 WNW
18.07.2018 05:00:00 19,9 18,4 4 2 12 6 ESE
18.07.2018 04:00:00 20,7 18,3 12 6 18 10 NW
18.07.2018 03:00:00 20,9 18,7 16 9 19 10 NW
18.07.2018 02:00:00 21,3 18,1 16 9 22 12 NW
18.07.2018 01:00:00 21,5 17,7 16 9 18 10 NNW
18.07.2018 00:00:00 21,4 18,6 12 7 17 9 NNW
17.07.2018 23:00:00 21,9 17,7 15 8 18 10 NNE
17.07.2018 22:00:00 22,0 17,8 16 9 25 13 NNE
17.07.2018 21:00:00 22,3 18,3 21 12 25 14 NE
17.07.2018 20:00:00 22,5 17,8 11 6 16 9 NNE
17.07.2018 19:00:00 23,1 18,0 16 9 22 12 NE
17.07.2018 18:00:00 23,4 18,1 20 11 23 13 NE
17.07.2018 17:00:00 23,4 18,7 20 11 23 13 NE
17.07.2018 16:00:00 23,1 18,8 20 11 23 12 NE
17.07.2018 15:00:00 24,4 19,5 19 10 24 13 NE
17.07.2018 14:00:00 23,8 19,3 12 7 22 12 NNE
17.07.2018 13:00:00 22,5 18,5 8 4 10 6 WNW
17.07.2018 12:00:00 22,6 17,7 6 4 19 10 WNW
17.07.2018 11:00:00 23,4 18,5 17 9 25 13 NNE
17.07.2018 10:00:00 22,0 18,2 16 9 20 11 NE
17.07.2018 09:00:00 22,4 17,3 16 9 21 12 NNE
17.07.2018 08:00:00 21,4 16,8 18 10 23 12 NNE
17.07.2018 07:00:00 20,7 16,7 15 8 24 13 NNE
17.07.2018 06:00:00 20,7 16,3 22 12 26 14 NNE
17.07.2018 05:00:00 20,5 16,7 18 10 22 12 NNE
17.07.2018 04:00:00 20,7 17,5 16 9 20 11 NNE
17.07.2018 03:00:00 20,9 17,7 15 8 18 10 N
17.07.2018 02:00:00 20,7 17,5 14 8 18 10 NNW
17.07.2018 01:00:00 21,5 15,8 14 8 18 10 NNW
17.07.2018 00:00:00 21,4 15,9 12 7 16 9 NW
16.07.2018 23:00:00 21,5 16,7 10 5 13 7 NNW
16.07.2018 22:00:00 21,5 16,5 12 6 14 8 NW
16.07.2018 21:00:00 22,3 16,6 10 5 13 7 NW
16.07.2018 20:00:00 23,5 15,8 2 1 11 6 NW
16.07.2018 19:00:00 23,9 17,9 6 4 9 5 NW
16.07.2018 18:00:00 24,1 14,8 3 2 8 4 W
16.07.2018 17:00:00 24,8 14,0 0 0 6 4 N
16.07.2018 16:00:00 24,0 14,7 3 2 6 3 SE
16.07.2018 15:00:00 23,5 15,5 4 2 10 6 SE
16.07.2018 14:00:00 22,9 16,4 11 6 14 7 ESE
16.07.2018 13:00:00 23,6 17,1 11 6 14 7 NE
16.07.2018 12:00:00 22,8 17,3 9 5 12 7 ENE
16.07.2018 11:00:00 22,6 17,1 11 6 14 8 ENE
16.07.2018 10:00:00 22,4 17,7 11 6 19 10 NE
16.07.2018 09:00:00 21,4 18,4 16 8 18 10 NE
16.07.2018 08:00:00 20,3 18,6 16 9 19 11 NE
16.07.2018 07:00:00 19,7 18,7 12 7 15 8 NE
16.07.2018 06:00:00 19,6 18,9 5 3 6 4 NE
16.07.2018 05:00:00 18,8 18,5 4 2 8 5 ESE
16.07.2018 04:00:00 18,8 18,3 7 4 9 5 ESE
16.07.2018 03:00:00 18,9 18,4 6 4 11 6 ESE
16.07.2018 02:00:00 18,9 18,4 0 0 1 1 N
16.07.2018 01:00:00 19,0 18,0 0 0 1 1 N
16.07.2018 00:00:00 18,6 17,4 0 0 0 0 N
15.07.2018 23:00:00 19,2 18,0 0 0 7 4 N
15.07.2018 22:00:00 19,4 17,5 4 2 11 6 SW
15.07.2018 21:00:00 20,0 17,8 9 5 13 7 SW
15.07.2018 20:00:00 20,9 17,7 9 5 17 9 SW
15.07.2018 19:00:00 22,5 17,6 12 6 17 9 WSW
15.07.2018 18:00:00 23,1 17,3 13 7 23 12 WSW
15.07.2018 17:00:00 22,5 17,4 18 10 25 13 WSW
15.07.2018 16:00:00 22,8 16,8 16 9 21 11 SW
15.07.2018 15:00:00 24,5 16,7 12 7 21 12 WSW
15.07.2018 14:00:00 24,1 16,4 16 8 21 11 WSW
15.07.2018 13:00:00 23,2 15,8 13 7 21 11 WSW
15.07.2018 12:00:00 22,4 16,0 14 7 21 11 WSW
15.07.2018 11:00:00 20,6 15,6 17 9 20 11 W
15.07.2018 10:00:00 20,8 15,3 16 8 23 12 WNW
15.07.2018 09:00:00 19,6 14,6 19 10 23 12 WNW
15.07.2018 08:00:00 18,4 13,9 21 11 26 14 NW
15.07.2018 07:00:00 17,5 13,6 22 12 31 17 NW
15.07.2018 06:00:00 17,0 13,3 27 15 32 18 NW
15.07.2018 05:00:00 16,9 13,8 22 12 29 15 WNW
15.07.2018 04:00:00 17,1 13,6 21 11 27 14 WNW
15.07.2018 03:00:00 17,5 13,6 22 12 30 16 WNW
15.07.2018 02:00:00 18,0 14,1 26 14 34 18 WNW
15.07.2018 01:00:00 18,4 14,5 29 16 36 20 WNW
15.07.2018 00:00:00 18,8 15,1 31 17 40 21 WNW
14.07.2018 23:00:00 19,4 15,3 32 17 40 22 WNW
14.07.2018 22:00:00 20,1 15,9 33 18 40 22 WNW
14.07.2018 21:00:00 20,8 16,0 31 17 36 19 W
14.07.2018 20:00:00 20,9 17,3 14 8 19 10 WSW
14.07.2018 19:00:00 21,3 17,3 13 7 20 11 WSW
14.07.2018 18:00:00 21,9 16,6 21 11 29 16 WNW
14.07.2018 17:00:00 22,3 17,0 20 11 24 13 WSW
14.07.2018 16:00:00 24,6 16,8 17 9 27 14 WSW
14.07.2018 15:00:00 25,2 17,1 16 9 25 13 WSW
14.07.2018 14:00:00 24,2 17,0 16 9 20 11 WSW
14.07.2018 13:00:00 23,2 16,5 15 8 21 12 WSW
14.07.2018 12:00:00 21,2 16,8 19 10 22 12 WSW
14.07.2018 11:00:00 19,9 16,3 14 7 21 11 W
14.07.2018 10:00:00 20,2 16,4 15 8 22 12 WNW
14.07.2018 09:00:00 20,0 16,4 16 8 20 11 WNW
14.07.2018 08:00:00 19,2 16,8 13 7 17 9 WNW
14.07.2018 07:00:00 19,3 16,3 16 9 24 13 NW
14.07.2018 06:00:00 18,6 16,2 16 9 20 11 NW
14.07.2018 05:00:00 18,2 17,0 14 7 17 9 NW
14.07.2018 04:00:00 18,1 17,5 10 5 12 6 NNW
14.07.2018 03:00:00 18,7 17,9 11 6 15 8 WNW
14.07.2018 02:00:00 18,9 17,9 13 7 15 8 WNW
14.07.2018 01:00:00 19,0 17,8 13 7 18 10 WNW
14.07.2018 00:00:00 18,8 18,1 10 5 14 7 WNW
13.07.2018 23:00:00 18,9 18,1 9 5 11 6 WSW
13.07.2018 22:00:00 18,8 17,5 8 4 10 5 SW
13.07.2018 21:00:00 19,9 16,5 3 2 7 4 SSW
13.07.2018 20:00:00 20,3 17,5 3 1 7 4 SSE
13.07.2018 19:00:00 21,9 17,5 5 3 15 8 WSW
13.07.2018 18:00:00 22,0 18,2 11 6 17 9 WSW
13.07.2018 17:00:00 20,0 17,4 8 4 10 5 S
13.07.2018 16:00:00 19,0 17,5 7 4 8 4 SE
13.07.2018 15:00:00 20,0 16,6 0 0 15 8 N

tt = Température de l'air
td = dewpoint
ff = Vitesse du vent
fx = gusts
dd = Direction du vent

stations d'obs. à proximité